createdAt,value
2018-02-13T00:00:05.113Z,21.2
2018-02-13T00:02:07.337Z,21.2
2018-02-13T00:04:05.348Z,21.2
2018-02-13T00:06:07.262Z,21.2
2018-02-13T00:08:05.016Z,21.2
2018-02-13T00:10:04.788Z,21.1
2018-02-13T00:12:05.110Z,21.1
2018-02-13T00:14:09.985Z,21.1
2018-02-13T00:16:05.010Z,21.2
2018-02-13T00:18:04.995Z,21.1
2018-02-13T00:20:05.264Z,21.1
2018-02-13T00:22:05.388Z,21.1
2018-02-13T00:24:10.280Z,21.1
2018-02-13T00:26:05.587Z,21.1
2018-02-13T00:28:05.732Z,21.1
2018-02-13T00:30:05.560Z,21.1
2018-02-13T00:32:17.985Z,21.1
2018-02-13T00:34:07.562Z,21
2018-02-13T00:36:04.952Z,21.1
2018-02-13T00:38:04.679Z,21.1
2018-02-13T00:40:05.648Z,21
2018-02-13T00:42:05.408Z,21
2018-02-13T00:44:04.750Z,21.1
2018-02-13T00:46:05.757Z,21.1
2018-02-13T00:48:05.541Z,21
2018-02-13T00:50:04.893Z,21.1
2018-02-13T00:52:04.729Z,21
2018-02-13T00:54:05.471Z,21
2018-02-13T00:56:05.225Z,21
2018-02-13T00:58:05.008Z,21.1
2018-02-13T01:00:04.809Z,21
2018-02-13T01:02:05.105Z,21
2018-02-13T01:04:07.671Z,21
2018-02-13T01:06:05.376Z,21
2018-02-13T01:08:07.737Z,21
2018-02-13T01:10:08.432Z,21
2018-02-13T01:12:04.674Z,21
2018-02-13T01:14:05.550Z,21
2018-02-13T01:16:05.333Z,21
2018-02-13T01:18:07.845Z,21
2018-02-13T01:20:04.651Z,21
2018-02-13T01:22:05.366Z,21
2018-02-13T01:24:05.120Z,21
2018-02-13T01:26:07.891Z,21
2018-02-13T01:28:04.656Z,21
2018-02-13T01:30:10.512Z,21
2018-02-13T01:32:04.916Z,21
2018-02-13T01:34:05.126Z,21
2018-02-13T01:36:04.917Z,21
2018-02-13T01:38:07.724Z,21
2018-02-13T01:40:08.104Z,21
2018-02-13T01:42:04.922Z,20.9
2018-02-13T01:44:05.217Z,21
2018-02-13T01:46:07.641Z,21
2018-02-13T01:48:05.436Z,20.9
2018-02-13T01:50:05.225Z,21
2018-02-13T01:52:05.307Z,21
2018-02-13T01:54:05.084Z,21
2018-02-13T01:56:10.473Z,20.9
2018-02-13T01:58:05.156Z,21
2018-02-13T02:00:04.941Z,21
2018-02-13T02:02:04.764Z,21
2018-02-13T02:04:05.523Z,21
2018-02-13T02:06:07.394Z,21
2018-02-13T02:08:05.235Z,20.9
2018-02-13T02:10:05.009Z,21
2018-02-13T02:12:12.427Z,20.9
2018-02-13T02:14:05.206Z,21
2018-02-13T02:16:05.325Z,21
2018-02-13T02:18:05.252Z,21
2018-02-13T02:20:05.004Z,21
2018-02-13T02:22:05.169Z,21
2018-02-13T02:24:04.919Z,21
2018-02-13T02:26:04.695Z,20.9
2018-02-13T02:28:05.777Z,20.9
2018-02-13T02:30:05.590Z,21
2018-02-13T02:32:07.895Z,21
2018-02-13T02:34:04.821Z,21
2018-02-13T02:36:05.857Z,20.9
2018-02-13T02:38:04.631Z,21
2018-02-13T02:40:05.507Z,20.9
2018-02-13T02:42:04.873Z,21
2018-02-13T02:44:05.605Z,20.9
2018-02-13T02:46:05.573Z,21
2018-02-13T02:48:10.388Z,21
2018-02-13T02:50:05.240Z,21
2018-02-13T02:52:07.778Z,20.9
2018-02-13T02:54:05.085Z,20.9
2018-02-13T02:56:05.383Z,20.9
2018-02-13T02:58:07.755Z,20.9
2018-02-13T03:00:05.511Z,20.9
2018-02-13T03:02:07.791Z,20.9
2018-02-13T03:04:05.872Z,21
2018-02-13T03:06:04.684Z,20.9
2018-02-13T03:08:05.458Z,20.9
2018-02-13T03:10:05.481Z,20.9
2018-02-13T03:12:05.256Z,20.9
2018-02-13T03:14:05.012Z,20.9
2018-02-13T03:16:05.307Z,21
2018-02-13T03:18:05.238Z,20.9
2018-02-13T03:20:04.971Z,20.9
2018-02-13T03:22:04.817Z,21
2018-02-13T03:24:10.668Z,20.9
2018-02-13T03:26:07.944Z,20.9
2018-02-13T03:28:07.274Z,21
2018-02-13T03:30:07.677Z,21
2018-02-13T03:32:05.500Z,20.9
2018-02-13T03:34:05.420Z,21
2018-02-13T03:36:05.224Z,21
2018-02-13T03:38:05.003Z,21
2018-02-13T03:40:07.412Z,21
2018-02-13T03:42:05.215Z,21
2018-02-13T03:44:07.624Z,21
2018-02-13T03:46:05.419Z,21
2018-02-13T03:48:05.158Z,20.9
2018-02-13T03:50:04.954Z,21
2018-02-13T03:52:04.800Z,21
2018-02-13T03:54:05.507Z,21
2018-02-13T03:56:05.359Z,20.9
2018-02-13T03:58:05.121Z,21
2018-02-13T04:00:04.884Z,20.9
2018-02-13T04:02:07.655Z,21
2018-02-13T04:04:07.899Z,21
2018-02-13T04:06:05.625Z,20.9
2018-02-13T04:08:05.355Z,21
2018-02-13T04:10:07.620Z,21
2018-02-13T04:12:05.386Z,21
2018-02-13T04:14:07.273Z,21
2018-02-13T04:16:05.655Z,21
2018-02-13T04:18:04.715Z,21
2018-02-13T04:20:05.442Z,20.9
2018-02-13T04:22:05.449Z,21
2018-02-13T04:24:05.173Z,21
2018-02-13T04:26:04.965Z,21
2018-02-13T04:28:05.278Z,21
2018-02-13T04:30:05.039Z,21
2018-02-13T04:32:04.800Z,21
2018-02-13T04:34:05.555Z,21
2018-02-13T04:36:05.355Z,21
2018-02-13T04:38:07.648Z,21
2018-02-13T04:40:05.021Z,20.9
2018-02-13T04:42:07.799Z,21
2018-02-13T04:44:05.446Z,21
2018-02-13T04:46:07.777Z,21
2018-02-13T04:48:05.514Z,21
2018-02-13T04:50:07.862Z,21
2018-02-13T04:52:05.154Z,21
2018-02-13T04:54:04.901Z,21
2018-02-13T04:56:04.651Z,21.1
2018-02-13T04:58:09.999Z,21.1
2018-02-13T05:00:09.846Z,21.2
2018-02-13T05:02:08.108Z,21.2
2018-02-13T05:04:04.905Z,21.2
2018-02-13T05:06:04.661Z,21.2
2018-02-13T05:08:15.555Z,21.3
2018-02-13T05:10:10.557Z,21.3
2018-02-13T05:12:07.821Z,21.3
2018-02-13T05:14:08.159Z,21.3
2018-02-13T05:16:10.321Z,21.3
2018-02-13T05:18:07.801Z,21.4
2018-02-13T05:20:05.650Z,21.4
2018-02-13T05:22:07.455Z,21.4
2018-02-13T05:24:07.724Z,21.4
2018-02-13T05:26:05.482Z,21.4
2018-02-13T05:28:10.328Z,21.4
2018-02-13T05:30:07.194Z,21.5
2018-02-13T05:32:05.028Z,21.5
2018-02-13T05:34:05.266Z,21.5
2018-02-13T05:36:05.551Z,21.5
2018-02-13T05:38:04.813Z,21.5
2018-02-13T05:40:08.686Z,21.5
2018-02-13T05:42:05.424Z,21.6
2018-02-13T05:44:05.219Z,21.6
2018-02-13T05:46:05.053Z,21.6
2018-02-13T05:48:05.486Z,21.6
2018-02-13T05:50:05.295Z,21.7
2018-02-13T05:52:05.075Z,21.7
2018-02-13T05:54:05.420Z,21.7
2018-02-13T05:56:10.210Z,21.6
2018-02-13T05:58:05.012Z,21.6
2018-02-13T06:00:04.810Z,21.7
2018-02-13T06:02:05.259Z,21.7
2018-02-13T06:04:05.074Z,21.7
2018-02-13T06:06:05.012Z,21.7
2018-02-13T06:08:04.731Z,21.7
2018-02-13T06:10:05.591Z,21.7
2018-02-13T06:12:04.909Z,21.8
2018-02-13T06:14:04.840Z,21.8
2018-02-13T06:16:05.134Z,21.8
2018-02-13T06:18:04.760Z,21.8
2018-02-13T06:20:05.537Z,21.8
2018-02-13T06:22:05.620Z,21.8
2018-02-13T06:24:05.352Z,21.8
2018-02-13T06:26:05.110Z,21.9
2018-02-13T06:28:05.214Z,21.8
2018-02-13T06:30:05.000Z,21.8
2018-02-13T06:32:05.294Z,21.9
2018-02-13T06:34:05.037Z,21.9
2018-02-13T06:36:04.906Z,21.9
2018-02-13T06:38:14.818Z,22
2018-02-13T06:40:08.340Z,21.9
2018-02-13T06:42:05.125Z,21.9
2018-02-13T06:44:04.904Z,21.9
2018-02-13T06:46:04.752Z,21.9
2018-02-13T06:48:05.471Z,21.9
2018-02-13T06:50:05.291Z,21.9
2018-02-13T06:52:05.968Z,21.9
2018-02-13T06:54:04.719Z,21.9
2018-02-13T06:56:05.453Z,21.9
2018-02-13T06:58:05.290Z,21.9
2018-02-13T07:00:05.024Z,21.9
2018-02-13T07:02:07.869Z,21.9
2018-02-13T07:04:14.857Z,21.9
2018-02-13T07:06:05.636Z,21.9
2018-02-13T07:08:07.927Z,21.9
2018-02-13T07:10:14.777Z,21.9
2018-02-13T07:12:10.593Z,21.9
2018-02-13T07:14:05.624Z,21.9
2018-02-13T07:16:05.666Z,21.9
2018-02-13T07:18:05.622Z,21.9
2018-02-13T07:20:05.461Z,22
2018-02-13T07:22:05.345Z,22
2018-02-13T07:24:05.109Z,22
2018-02-13T07:26:04.910Z,22
2018-02-13T07:28:04.793Z,22
2018-02-13T07:30:05.548Z,22.1
2018-02-13T07:32:05.342Z,22.2
2018-02-13T07:34:05.247Z,22.2
2018-02-13T07:36:10.138Z,22.3
2018-02-13T07:38:05.497Z,22.3
2018-02-13T07:40:05.303Z,22.4
2018-02-13T07:42:05.532Z,22.4
2018-02-13T07:44:05.297Z,22.5
2018-02-13T07:46:05.070Z,22.5
2018-02-13T07:48:04.820Z,22.6
2018-02-13T07:50:05.781Z,22.6
2018-02-13T07:52:05.587Z,22.6
2018-02-13T07:54:05.395Z,22.7
2018-02-13T07:56:05.266Z,22.8
2018-02-13T07:58:05.075Z,22.8
2018-02-13T08:00:04.924Z,22.9
2018-02-13T08:02:04.734Z,22.9
2018-02-13T08:04:17.673Z,23
2018-02-13T08:06:05.429Z,23
2018-02-13T08:08:07.945Z,23
2018-02-13T08:10:04.710Z,23.1
2018-02-13T08:12:07.981Z,23.2
2018-02-13T08:14:04.719Z,23.1
2018-02-13T08:16:05.472Z,23.3
2018-02-13T08:18:04.984Z,23.4
2018-02-13T08:20:04.949Z,23.4
2018-02-13T08:22:04.720Z,23.5
2018-02-13T08:24:05.490Z,23.5
2018-02-13T08:26:05.248Z,23.6
2018-02-13T08:28:05.062Z,23.6
2018-02-13T08:30:04.779Z,23.7
2018-02-13T08:32:05.518Z,23.7
2018-02-13T08:34:05.399Z,23.8
2018-02-13T08:36:05.126Z,23.8
2018-02-13T08:38:04.859Z,23.8
2018-02-13T08:40:05.611Z,23.8
2018-02-13T08:42:05.373Z,23.8
2018-02-13T08:44:05.199Z,23.8
2018-02-13T08:46:05.488Z,23.8
2018-02-13T08:48:05.210Z,23.7
2018-02-13T08:50:05.018Z,23.7
2018-02-13T08:52:09.913Z,23.7
2018-02-13T08:54:09.778Z,23.7
2018-02-13T08:56:07.204Z,23.6
2018-02-13T08:58:04.976Z,23.6
2018-02-13T09:00:04.720Z,23.6
2018-02-13T09:02:04.990Z,23.6
2018-02-13T09:04:04.741Z,23.6
2018-02-13T09:06:05.492Z,23.6
2018-02-13T09:08:04.872Z,23.7
2018-02-13T09:10:06.421Z,23.7
2018-02-13T09:12:07.713Z,23.8
2018-02-13T09:14:05.572Z,23.8
2018-02-13T09:16:05.352Z,23.8
2018-02-13T09:18:05.400Z,23.8
2018-02-13T09:20:05.176Z,23.9
2018-02-13T09:22:04.923Z,23.9
2018-02-13T09:24:04.709Z,23.9
2018-02-13T09:26:08.062Z,24
2018-02-13T09:28:04.853Z,24
2018-02-13T09:30:05.596Z,24
2018-02-13T09:32:05.378Z,23.9
2018-02-13T09:34:05.154Z,23.8
2018-02-13T09:36:04.911Z,23.9
2018-02-13T09:38:07.177Z,23.9
2018-02-13T09:40:04.983Z,23.9
2018-02-13T09:42:04.704Z,24
2018-02-13T09:44:07.989Z,24
2018-02-13T09:46:07.254Z,24
2018-02-13T09:48:10.650Z,24
2018-02-13T09:50:05.410Z,24
2018-02-13T09:52:05.180Z,24.1
2018-02-13T09:54:05.686Z,24.1
2018-02-13T09:56:04.813Z,24.1
2018-02-13T09:58:10.623Z,24
2018-02-13T10:00:11.115Z,24
2018-02-13T10:02:09.934Z,24
2018-02-13T10:04:05.272Z,24.1
2018-02-13T10:06:07.911Z,24
2018-02-13T10:08:05.118Z,24
2018-02-13T10:10:05.152Z,24
2018-02-13T10:12:04.913Z,24
2018-02-13T10:14:04.676Z,24
2018-02-13T10:16:07.521Z,24
2018-02-13T10:18:05.477Z,24
2018-02-13T10:20:05.515Z,24
2018-02-13T10:22:04.921Z,24
2018-02-13T10:24:04.653Z,24
2018-02-13T10:26:05.461Z,24
2018-02-13T10:28:05.208Z,24
2018-02-13T10:30:04.689Z,24
2018-02-13T10:32:05.052Z,23.9
2018-02-13T10:34:04.896Z,23.9
2018-02-13T10:36:04.818Z,23.8
2018-02-13T10:38:05.140Z,23.8
2018-02-13T10:40:05.293Z,23.8
2018-02-13T10:42:07.551Z,23.8
2018-02-13T10:44:10.305Z,23.7
2018-02-13T10:46:05.185Z,23.7
2018-02-13T10:48:10.049Z,23.7
2018-02-13T10:50:04.858Z,23.7
2018-02-13T10:52:05.977Z,23.6
2018-02-13T10:54:10.014Z,23.6
2018-02-13T10:56:05.336Z,23.6
2018-02-13T10:58:05.092Z,23.6
2018-02-13T11:00:04.861Z,23.6
2018-02-13T11:02:05.576Z,23.5
2018-02-13T11:04:05.391Z,23.5
2018-02-13T11:06:04.713Z,23.5
2018-02-13T11:08:04.952Z,23.5
2018-02-13T11:10:08.108Z,23.5
2018-02-13T11:12:04.831Z,23.5
2018-02-13T11:14:05.575Z,23.5
2018-02-13T11:16:07.956Z,23.5
2018-02-13T11:18:08.149Z,23.5
2018-02-13T11:20:04.904Z,23.5
2018-02-13T11:22:10.066Z,23.5
2018-02-13T11:24:07.380Z,23.5
2018-02-13T11:26:15.412Z,23.5
2018-02-13T11:28:05.410Z,23.5
2018-02-13T11:30:04.771Z,23.5
2018-02-13T11:32:07.622Z,23.5
2018-02-13T11:34:05.591Z,23.5
2018-02-13T11:36:07.904Z,23.6
2018-02-13T11:38:05.172Z,23.6
2018-02-13T11:40:05.063Z,23.6
2018-02-13T11:42:05.398Z,23.6
2018-02-13T11:44:05.208Z,23.6
2018-02-13T11:46:10.065Z,23.6
2018-02-13T11:48:04.851Z,23.6
2018-02-13T11:50:05.653Z,23.6
2018-02-13T11:52:08.220Z,23.7
2018-02-13T11:54:04.952Z,23.6
2018-02-13T11:56:05.275Z,23.6
2018-02-13T11:58:05.374Z,23.6
2018-02-13T12:00:05.116Z,23.6
2018-02-13T12:02:04.870Z,23.6
2018-02-13T12:04:07.401Z,23.7
2018-02-13T12:06:05.150Z,23.6
2018-02-13T12:08:04.939Z,23.6
2018-02-13T12:10:17.678Z,23.6
2018-02-13T12:12:05.446Z,23.6
2018-02-13T12:14:04.830Z,23.6
2018-02-13T12:16:05.263Z,23.5
2018-02-13T12:18:10.335Z,23.5
2018-02-13T12:20:04.623Z,23.5
2018-02-13T12:22:05.686Z,23.5
2018-02-13T12:24:05.439Z,23.5
2018-02-13T12:26:10.220Z,23.4
2018-02-13T12:28:07.586Z,23.4
2018-02-13T12:30:04.940Z,23.4
2018-02-13T12:32:04.650Z,23.5
2018-02-13T12:34:05.380Z,23.5
2018-02-13T12:36:05.135Z,23.5
2018-02-13T12:38:07.471Z,23.4
2018-02-13T12:40:05.268Z,23.4
2018-02-13T12:42:04.825Z,23.4
2018-02-13T12:44:05.171Z,23.4
2018-02-13T12:46:05.025Z,23.4
2018-02-13T12:48:04.816Z,23.4
2018-02-13T12:50:05.556Z,23.3
2018-02-13T12:52:05.437Z,23.3
2018-02-13T12:54:05.279Z,23.3
2018-02-13T12:56:05.548Z,23.3
2018-02-13T12:58:09.937Z,23.3
2018-02-13T13:00:04.744Z,23.3
2018-02-13T13:02:05.489Z,23.3
2018-02-13T13:04:05.290Z,23.3
2018-02-13T13:06:05.126Z,23.2
2018-02-13T13:08:04.961Z,23.2
2018-02-13T13:10:05.348Z,23.2
2018-02-13T13:12:05.143Z,23.2
2018-02-13T13:14:04.935Z,23.2
2018-02-13T13:16:07.610Z,23.2
2018-02-13T13:18:05.554Z,23.1
2018-02-13T13:20:05.315Z,23.2
2018-02-13T13:22:05.339Z,23.2
2018-02-13T13:24:04.743Z,23.2
2018-02-13T13:26:05.506Z,23.2
2018-02-13T13:28:05.718Z,23.2
2018-02-13T13:30:05.501Z,23.2
2018-02-13T13:32:05.278Z,23.2
2018-02-13T13:34:05.296Z,23.2
2018-02-13T13:36:07.619Z,23.2
2018-02-13T13:38:05.396Z,23.2
2018-02-13T13:40:12.781Z,23.2
2018-02-13T13:42:05.539Z,23.2
2018-02-13T13:44:05.397Z,23.2
2018-02-13T13:46:05.293Z,23.2
2018-02-13T13:48:05.606Z,23.2
2018-02-13T13:50:07.864Z,23.2
2018-02-13T13:52:05.614Z,23.2
2018-02-13T13:54:08.052Z,23.2
2018-02-13T13:56:07.339Z,23.2
2018-02-13T13:58:05.081Z,23.2
2018-02-13T14:00:04.826Z,23.2
2018-02-13T14:02:05.569Z,23.2
2018-02-13T14:04:05.414Z,23.2
2018-02-13T14:06:07.656Z,23.2
2018-02-13T14:08:07.929Z,23.2
2018-02-13T14:10:04.940Z,23.2
2018-02-13T14:12:04.732Z,23.2
2018-02-13T14:14:05.523Z,23.2
2018-02-13T14:16:05.241Z,23.2
2018-02-13T14:18:10.271Z,23.2
2018-02-13T14:20:05.136Z,23.2
2018-02-13T14:22:10.047Z,23.2
2018-02-13T14:24:04.800Z,23.2
2018-02-13T14:26:05.601Z,23.2
2018-02-13T14:28:05.000Z,23.2
2018-02-13T14:30:07.854Z,23.2
2018-02-13T14:32:10.667Z,23.2
2018-02-13T14:34:05.172Z,23.2
2018-02-13T14:36:05.222Z,23.2
2018-02-13T14:38:05.000Z,23.2
2018-02-13T14:40:04.779Z,23.2
2018-02-13T14:42:05.627Z,23.2
2018-02-13T14:44:05.440Z,23.2
2018-02-13T14:46:05.214Z,23.2
2018-02-13T14:48:05.620Z,23.2
2018-02-13T14:50:05.400Z,23.2
2018-02-13T14:52:05.318Z,23.2
2018-02-13T14:54:04.794Z,23.2
2018-02-13T14:56:05.404Z,23.2
2018-02-13T14:58:05.151Z,23.2
2018-02-13T15:00:05.035Z,23.2
2018-02-13T15:02:07.776Z,23.2
2018-02-13T15:04:04.973Z,23.2
2018-02-13T15:06:05.127Z,23.1
2018-02-13T15:08:04.928Z,23.2
2018-02-13T15:10:05.061Z,23.2
2018-02-13T15:12:07.393Z,23.2
2018-02-13T15:14:12.320Z,23.2
2018-02-13T15:16:05.334Z,23.1
2018-02-13T15:18:15.580Z,23.1
2018-02-13T15:20:08.083Z,23.2
2018-02-13T15:22:05.830Z,23.1
2018-02-13T15:24:07.626Z,23.2
2018-02-13T15:26:04.752Z,23.1
2018-02-13T15:28:05.019Z,23.1
2018-02-13T15:30:05.625Z,23.1
2018-02-13T15:32:05.565Z,23.2
2018-02-13T15:34:04.856Z,23.2
2018-02-13T15:36:07.942Z,23.2
2018-02-13T15:38:04.830Z,23.2
2018-02-13T15:40:05.218Z,23.2
2018-02-13T15:42:05.222Z,23.2
2018-02-13T15:44:05.274Z,23.2
2018-02-13T15:46:05.629Z,23.2
2018-02-13T15:48:04.830Z,23.2
2018-02-13T15:50:05.020Z,23.1
2018-02-13T15:52:05.394Z,23.1
2018-02-13T15:54:05.261Z,23.2
2018-02-13T15:56:05.555Z,23.1
2018-02-13T15:58:05.891Z,23.2
2018-02-13T16:00:04.812Z,23.2
2018-02-13T16:02:05.169Z,23.2
2018-02-13T16:04:05.261Z,23.2
2018-02-13T16:06:04.831Z,23.2
2018-02-13T16:08:04.636Z,23.1
2018-02-13T16:10:05.400Z,23.2
2018-02-13T16:12:07.691Z,23.1
2018-02-13T16:14:05.404Z,23.2
2018-02-13T16:16:05.202Z,23.1
2018-02-13T16:18:04.665Z,23.2
2018-02-13T16:20:05.467Z,23.1
2018-02-13T16:22:13.031Z,23.1
2018-02-13T16:24:04.782Z,23.2
2018-02-13T16:26:08.130Z,23.1
2018-02-13T16:28:05.538Z,23.1
2018-02-13T16:30:05.294Z,23.1
2018-02-13T16:32:05.010Z,23.1
2018-02-13T16:34:07.553Z,23.1
2018-02-13T16:36:04.935Z,23.1
2018-02-13T16:38:04.866Z,23.1
2018-02-13T16:40:10.913Z,23
2018-02-13T16:42:04.702Z,23
2018-02-13T16:44:08.375Z,23
2018-02-13T16:46:04.727Z,23
2018-02-13T16:48:05.538Z,23
2018-02-13T16:50:05.253Z,23
2018-02-13T16:52:07.692Z,22.6
2018-02-13T16:54:04.975Z,22.6
2018-02-13T16:56:04.802Z,22.6
2018-02-13T16:58:05.565Z,22.7
2018-02-13T17:00:15.484Z,22.8
2018-02-13T17:02:04.815Z,22.7
2018-02-13T17:04:05.585Z,22.8
2018-02-13T17:06:05.384Z,22.8
2018-02-13T17:08:05.146Z,22.8
2018-02-13T17:10:07.516Z,23
2018-02-13T17:12:10.295Z,23.1
2018-02-13T17:14:05.596Z,23.1
2018-02-13T17:16:05.792Z,23.1
2018-02-13T17:18:05.276Z,23.1
2018-02-13T17:20:05.504Z,23.1
2018-02-13T17:22:07.324Z,23.1
2018-02-13T17:24:05.207Z,23.1
2018-02-13T17:26:04.977Z,23.1
2018-02-13T17:28:04.797Z,23.1
2018-02-13T17:30:05.583Z,23.1
2018-02-13T17:32:07.968Z,23.1
2018-02-13T17:34:04.729Z,23.1
2018-02-13T17:36:05.473Z,23.1
2018-02-13T17:38:05.486Z,23.2
2018-02-13T17:40:05.449Z,23.2
2018-02-13T17:42:05.273Z,23.2
2018-02-13T17:44:05.060Z,23.2
2018-02-13T17:46:05.121Z,23.2
2018-02-13T17:48:04.930Z,23.2
2018-02-13T17:50:04.690Z,23.3
2018-02-13T17:52:05.594Z,23.2
2018-02-13T17:54:05.378Z,23.2
2018-02-13T17:56:04.662Z,23.1
2018-02-13T17:58:07.287Z,23
2018-02-13T18:00:05.308Z,23
2018-02-13T18:02:05.313Z,22.9
2018-02-13T18:04:05.941Z,22.8
2018-02-13T18:06:04.727Z,22.7
2018-02-13T18:08:05.108Z,22.6
2018-02-13T18:10:10.276Z,22.5
2018-02-13T18:12:07.568Z,22.5
2018-02-13T18:14:05.606Z,22.5
2018-02-13T18:16:05.389Z,22.4
2018-02-13T18:18:05.381Z,22.4
2018-02-13T18:20:06.019Z,22.3
2018-02-13T18:22:05.152Z,22.3
2018-02-13T18:24:05.186Z,22.2
2018-02-13T18:26:05.047Z,22.2
2018-02-13T18:28:13.219Z,22.2
2018-02-13T18:30:04.979Z,22.2
2018-02-13T18:32:04.946Z,22.3
2018-02-13T18:34:04.722Z,22.3
2018-02-13T18:36:05.452Z,22.3
2018-02-13T18:38:05.464Z,22.4
2018-02-13T18:40:05.530Z,22.4
2018-02-13T18:42:06.263Z,22.4
2018-02-13T18:44:05.065Z,22.5
2018-02-13T18:46:05.647Z,22.5
2018-02-13T18:48:07.163Z,22.6
2018-02-13T18:50:04.914Z,22.6
2018-02-13T18:54:05.376Z,22.7
2018-02-13T18:56:05.118Z,22.9
2018-02-13T18:58:05.221Z,23
2018-02-13T19:00:04.994Z,23.1
2018-02-13T19:02:04.761Z,23.2
2018-02-13T19:04:04.737Z,23.3
2018-02-13T19:06:10.138Z,23.4
2018-02-13T19:08:05.315Z,23.4
2018-02-13T19:10:05.034Z,23.1
2018-02-13T19:12:04.774Z,22.7
2018-02-13T19:14:05.772Z,22.4
2018-02-13T19:16:08.046Z,22
2018-02-13T19:18:07.692Z,22.2
2018-02-13T19:20:05.465Z,22.2
2018-02-13T19:22:05.239Z,22.3
2018-02-13T19:24:08.144Z,22.5
2018-02-13T19:26:05.101Z,22.5
2018-02-13T19:28:04.842Z,22.6
2018-02-13T19:30:04.923Z,22.7
2018-02-13T19:32:04.661Z,22.7
2018-02-13T19:34:07.674Z,22.7
2018-02-13T19:36:04.667Z,22.7
2018-02-13T19:38:05.431Z,22.6
2018-02-13T19:40:04.744Z,22.7
2018-02-13T19:42:05.246Z,22.7
2018-02-13T19:44:05.436Z,22.7
2018-02-13T19:46:10.274Z,22.8
2018-02-13T19:48:07.520Z,22.7
2018-02-13T19:50:05.346Z,22.8
2018-02-13T19:52:05.694Z,22.7
2018-02-13T19:54:04.679Z,22.8
2018-02-13T19:56:05.504Z,22.8
2018-02-13T19:58:07.973Z,22.8
2018-02-13T20:00:04.957Z,22.8
2018-02-13T20:02:05.042Z,22.8
2018-02-13T20:04:07.311Z,22.8
2018-02-13T20:06:05.559Z,22.8
2018-02-13T20:08:05.521Z,22.8
2018-02-13T20:10:05.336Z,22.8
2018-02-13T20:12:12.699Z,22.8
2018-02-13T20:14:10.493Z,22.8
2018-02-13T20:16:05.343Z,22.8
2018-02-13T20:18:04.817Z,22.8
2018-02-13T20:20:08.107Z,22.8
2018-02-13T20:22:15.070Z,22.7
2018-02-13T20:24:05.361Z,22.7
2018-02-13T20:26:06.278Z,22.7
2018-02-13T20:28:05.015Z,22.7
2018-02-13T20:30:04.831Z,22.7
2018-02-13T20:32:07.211Z,22.7
2018-02-13T20:34:04.966Z,22.7
2018-02-13T20:36:05.045Z,22.7
2018-02-13T20:38:05.020Z,22.7
2018-02-13T20:40:04.999Z,22.7
2018-02-13T20:42:05.339Z,22.7
2018-02-13T20:44:05.570Z,22.7
2018-02-13T20:46:05.304Z,22.6
2018-02-13T20:48:05.346Z,22.7
2018-02-13T20:50:07.941Z,22.7
2018-02-13T20:52:04.933Z,22.6
2018-02-13T20:54:04.700Z,22.7
2018-02-13T20:56:05.608Z,22.6
2018-02-13T20:58:10.348Z,22.7
2018-02-13T21:00:05.111Z,22.6
2018-02-13T21:02:05.618Z,22.6
2018-02-13T21:04:04.911Z,22.6
2018-02-13T21:06:04.668Z,22.6
2018-02-13T21:08:04.705Z,22.6
2018-02-13T21:10:07.992Z,22.6
2018-02-13T21:12:04.977Z,22.7
2018-02-13T21:14:04.969Z,22.6
2018-02-13T21:16:05.150Z,22.6
2018-02-13T21:18:05.369Z,22.6
2018-02-13T21:20:06.178Z,22.6
2018-02-13T21:22:05.503Z,22.6
2018-02-13T21:24:05.255Z,22.7
2018-02-13T21:26:08.395Z,22.6
2018-02-13T21:28:04.911Z,22.6
2018-02-13T21:30:05.493Z,22.6
2018-02-13T21:32:09.881Z,22.7
2018-02-13T21:34:04.994Z,22.6
2018-02-13T21:36:04.990Z,22.6
2018-02-13T21:38:04.742Z,22.6
2018-02-13T21:40:04.776Z,22.6
2018-02-13T21:42:05.119Z,22.6
2018-02-13T21:44:12.999Z,22.6
2018-02-13T21:46:05.582Z,22.6
2018-02-13T21:48:05.359Z,22.6
2018-02-13T21:50:05.211Z,22.6
2018-02-13T21:52:05.016Z,22.6
2018-02-13T21:54:04.814Z,22.6
2018-02-13T21:56:05.655Z,22.6
2018-02-13T21:58:05.388Z,22.6
2018-02-13T22:00:05.162Z,22.6
2018-02-13T22:02:05.295Z,22.6
2018-02-13T22:04:10.630Z,22.6
2018-02-13T22:06:05.457Z,22.6
2018-02-13T22:08:05.730Z,22.6
2018-02-13T22:10:05.803Z,22.6
2018-02-13T22:12:04.745Z,22.6
2018-02-13T22:14:05.093Z,22.6
2018-02-13T22:16:07.417Z,22.6
2018-02-13T22:18:12.477Z,22.6
2018-02-13T22:20:05.334Z,22.6
2018-02-13T22:22:05.056Z,22.6
2018-02-13T22:24:04.795Z,22.6
2018-02-13T22:26:05.556Z,22.6
2018-02-13T22:28:15.442Z,22.5
2018-02-13T22:30:05.383Z,22.5
2018-02-13T22:32:05.131Z,22.5
2018-02-13T22:34:04.955Z,22.5
2018-02-13T22:36:09.846Z,22.5
2018-02-13T22:38:05.785Z,22.5
2018-02-13T22:40:05.552Z,22.5
2018-02-13T22:42:04.785Z,22.5
2018-02-13T22:44:05.589Z,22.5
2018-02-13T22:46:05.342Z,22.5
2018-02-13T22:48:07.640Z,22.5
2018-02-13T22:50:05.469Z,22.5
2018-02-13T22:52:05.435Z,22.5
2018-02-13T22:54:07.706Z,22.5
2018-02-13T22:56:08.075Z,22.5
2018-02-13T22:58:04.797Z,22.5
2018-02-13T23:00:08.141Z,22.5
2018-02-13T23:02:04.925Z,22.5
2018-02-13T23:04:05.299Z,22.5
2018-02-13T23:06:05.977Z,22.5
2018-02-13T23:08:07.258Z,22.5
2018-02-13T23:10:05.039Z,22.5
2018-02-13T23:12:04.845Z,22.5
2018-02-13T23:14:05.457Z,22.5
2018-02-13T23:16:05.196Z,22.5
2018-02-13T23:18:10.221Z,22.4
2018-02-13T23:20:04.999Z,22.5
2018-02-13T23:22:04.776Z,22.4
2018-02-13T23:24:10.578Z,22.4
2018-02-13T23:26:04.851Z,22.4
2018-02-13T23:28:04.892Z,22.4
2018-02-13T23:30:04.642Z,22.4
2018-02-13T23:32:05.443Z,22.4
2018-02-13T23:34:05.247Z,22.4
2018-02-13T23:36:05.144Z,22.4
2018-02-13T23:38:07.982Z,22.4
2018-02-13T23:40:05.303Z,22.4
2018-02-13T23:42:05.030Z,22.4
2018-02-13T23:44:04.802Z,22.4
2018-02-13T23:46:05.634Z,22.4
2018-02-13T23:48:05.449Z,22.3
2018-02-13T23:50:04.786Z,22.3
2018-02-13T23:52:05.102Z,22.3
2018-02-13T23:54:04.919Z,22.3
2018-02-13T23:56:05.201Z,22.3
2018-02-13T23:58:04.979Z,22.3
